sensor_id;sensor_type;location;lat;lon;timestamp;temperature;humidity
35244;DHT22;37916;52.160;21.066;2023-01-05T00:01:51;7.70;90.70
35244;DHT22;37916;52.160;21.066;2023-01-05T00:11:51;7.80;90.80
35244;DHT22;37916;52.160;21.066;2023-01-05T00:22:22;7.80;90.80
35244;DHT22;37916;52.160;21.066;2023-01-05T00:32:37;7.90;91.00
35244;DHT22;37916;52.160;21.066;2023-01-05T00:42:38;7.90;91.00
35244;DHT22;37916;52.160;21.066;2023-01-05T00:52:39;8.00;90.90
35244;DHT22;37916;52.160;21.066;2023-01-05T01:02:39;8.00;90.90
35244;DHT22;37916;52.160;21.066;2023-01-05T01:12:43;8.10;90.80
35244;DHT22;37916;52.160;21.066;2023-01-05T01:22:43;8.10;90.80
35244;DHT22;37916;52.160;21.066;2023-01-05T01:32:49;8.20;90.90
35244;DHT22;37916;52.160;21.066;2023-01-05T01:42:49;8.10;91.00
35244;DHT22;37916;52.160;21.066;2023-01-05T01:52:52;8.10;91.10
35244;DHT22;37916;52.160;21.066;2023-01-05T02:02:54;8.10;91.20
35244;DHT22;37916;52.160;21.066;2023-01-05T02:13:05;8.20;91.50
35244;DHT22;37916;52.160;21.066;2023-01-05T02:44:16;8.40;91.30
35244;DHT22;37916;52.160;21.066;2023-01-05T02:54:26;8.50;91.30
35244;DHT22;37916;52.160;21.066;2023-01-05T03:04:39;8.50;91.30
35244;DHT22;37916;52.160;21.066;2023-01-05T03:14:46;8.60;91.30
35244;DHT22;37916;52.160;21.066;2023-01-05T03:24:48;8.50;90.80
35244;DHT22;37916;52.160;21.066;2023-01-05T03:35:16;8.60;90.90
35244;DHT22;37916;52.160;21.066;2023-01-05T03:45:45;8.70;90.90
35244;DHT22;37916;52.160;21.066;2023-01-05T03:55:50;8.60;91.10
35244;DHT22;37916;52.160;21.066;2023-01-05T04:05:50;8.60;91.30
35244;DHT22;37916;52.160;21.066;2023-01-05T04:15:51;8.60;91.20
35244;DHT22;37916;52.160;21.066;2023-01-05T04:25:54;8.50;90.90
35244;DHT22;37916;52.160;21.066;2023-01-05T04:35:55;8.40;90.70
35244;DHT22;37916;52.160;21.066;2023-01-05T04:45:58;8.40;90.80
35244;DHT22;37916;52.160;21.066;2023-01-05T04:55:59;8.30;90.90
35244;DHT22;37916;52.160;21.066;2023-01-05T05:06:00;8.30;90.90
35244;DHT22;37916;52.160;21.066;2023-01-05T05:16:01;8.30;91.40
35244;DHT22;37916;52.160;21.066;2023-01-05T05:26:01;8.30;91.30
35244;DHT22;37916;52.160;21.066;2023-01-05T05:36:03;8.40;91.50
35244;DHT22;37916;52.160;21.066;2023-01-05T05:46:04;8.40;91.40
35244;DHT22;37916;52.160;21.066;2023-01-05T05:56:05;8.30;91.20
35244;DHT22;37916;52.160;21.066;2023-01-05T06:06:12;8.20;90.60
35244;DHT22;37916;52.160;21.066;2023-01-05T06:16:16;8.00;90.50
35244;DHT22;37916;52.160;21.066;2023-01-05T06:26:19;8.00;90.50
35244;DHT22;37916;52.160;21.066;2023-01-05T06:36:23;8.10;90.70
35244;DHT22;37916;52.160;21.066;2023-01-05T06:46:24;8.10;90.80
35244;DHT22;37916;52.160;21.066;2023-01-05T06:56:25;8.20;90.50
35244;DHT22;37916;52.160;21.066;2023-01-05T07:06:28;8.20;90.40
35244;DHT22;37916;52.160;21.066;2023-01-05T07:16:29;8.30;90.60
35244;DHT22;37916;52.160;21.066;2023-01-05T07:26:29;8.30;90.40
35244;DHT22;37916;52.160;21.066;2023-01-05T07:36:33;8.40;91.10
35244;DHT22;37916;52.160;21.066;2023-01-05T07:46:49;8.40;91.10
35244;DHT22;37916;52.160;21.066;2023-01-05T07:56:49;8.50;90.90
35244;DHT22;37916;52.160;21.066;2023-01-05T08:06:53;8.70;91.20
35244;DHT22;37916;52.160;21.066;2023-01-05T08:16:56;8.80;90.60
35244;DHT22;37916;52.160;21.066;2023-01-05T08:26:57;8.80;90.50
35244;DHT22;37916;52.160;21.066;2023-01-05T08:37:03;8.80;90.60
35244;DHT22;37916;52.160;21.066;2023-01-05T08:47:04;8.80;89.60
35244;DHT22;37916;52.160;21.066;2023-01-05T08:57:05;8.80;89.50
35244;DHT22;37916;52.160;21.066;2023-01-05T09:07:15;8.90;89.90
35244;DHT22;37916;52.160;21.066;2023-01-05T09:17:16;9.00;89.70
35244;DHT22;37916;52.160;21.066;2023-01-05T09:27:19;8.90;89.50
35244;DHT22;37916;52.160;21.066;2023-01-05T09:37:20;8.80;90.40
35244;DHT22;37916;52.160;21.066;2023-01-05T09:47:42;8.80;89.80
35244;DHT22;37916;52.160;21.066;2023-01-05T09:57:55;8.80;89.40
35244;DHT22;37916;52.160;21.066;2023-01-05T10:08:31;9.00;89.70
35244;DHT22;37916;52.160;21.066;2023-01-05T10:18:33;9.10;90.00
35244;DHT22;37916;52.160;21.066;2023-01-05T10:28:44;9.40;89.10
35244;DHT22;37916;52.160;21.066;2023-01-05T10:39:14;9.80;89.60
35244;DHT22;37916;52.160;21.066;2023-01-05T10:49:29;10.30;86.30
35244;DHT22;37916;52.160;21.066;2023-01-05T10:59:31;10.60;84.70
35244;DHT22;37916;52.160;21.066;2023-01-05T11:09:43;10.30;82.00
35244;DHT22;37916;52.160;21.066;2023-01-05T11:19:53;10.50;82.00
35244;DHT22;37916;52.160;21.066;2023-01-05T11:30:18;10.20;83.30
35244;DHT22;37916;52.160;21.066;2023-01-05T11:40:28;9.90;84.90
35244;DHT22;37916;52.160;21.066;2023-01-05T11:50:33;9.90;85.70
35244;DHT22;37916;52.160;21.066;2023-01-05T12:11:18;9.80;81.20
35244;DHT22;37916;52.160;21.066;2023-01-05T12:21:23;9.60;82.40
35244;DHT22;37916;52.160;21.066;2023-01-05T12:42:07;9.60;82.10
35244;DHT22;37916;52.160;21.066;2023-01-05T12:52:40;9.70;82.30
35244;DHT22;37916;52.160;21.066;2023-01-05T13:02:54;9.40;81.70
35244;DHT22;37916;52.160;21.066;2023-01-05T13:13:14;9.30;81.30
35244;DHT22;37916;52.160;21.066;2023-01-05T13:23:20;9.00;80.60
35244;DHT22;37916;52.160;21.066;2023-01-05T13:33:38;8.80;82.30
35244;DHT22;37916;52.160;21.066;2023-01-05T13:54:29;8.40;84.10
35244;DHT22;37916;52.160;21.066;2023-01-05T14:04:33;8.10;83.80
35244;DHT22;37916;52.160;21.066;2023-01-05T14:25:44;7.90;85.40
35244;DHT22;37916;52.160;21.066;2023-01-05T14:35:49;7.80;84.10
35244;DHT22;37916;52.160;21.066;2023-01-05T14:56:18;7.70;84.40
35244;DHT22;37916;52.160;21.066;2023-01-05T15:06:39;7.80;85.30
35244;DHT22;37916;52.160;21.066;2023-01-05T15:38:11;8.00;84.90
35244;DHT22;37916;52.160;21.066;2023-01-05T15:48:25;7.90;86.20
35244;DHT22;37916;52.160;21.066;2023-01-05T15:58:29;7.80;85.20
35244;DHT22;37916;52.160;21.066;2023-01-05T16:08:34;7.70;86.80
35244;DHT22;37916;52.160;21.066;2023-01-05T16:18:42;7.60;88.10
35244;DHT22;37916;52.160;21.066;2023-01-05T16:28:47;7.40;89.00
35244;DHT22;37916;52.160;21.066;2023-01-05T17:09:35;6.70;88.30
35244;DHT22;37916;52.160;21.066;2023-01-05T17:19:36;6.60;88.70
35244;DHT22;37916;52.160;21.066;2023-01-05T17:29:37;6.50;88.50
35244;DHT22;37916;52.160;21.066;2023-01-05T17:39:49;6.40;88.10
35244;DHT22;37916;52.160;21.066;2023-01-05T17:49:50;6.30;88.30
35244;DHT22;37916;52.160;21.066;2023-01-05T18:00:03;6.20;88.00
35244;DHT22;37916;52.160;21.066;2023-01-05T18:10:17;6.20;88.50
35244;DHT22;37916;52.160;21.066;2023-01-05T18:20:25;6.20;88.40
35244;DHT22;37916;52.160;21.066;2023-01-05T18:30:32;6.10;88.20
35244;DHT22;37916;52.160;21.066;2023-01-05T18:40:33;6.10;87.60
35244;DHT22;37916;52.160;21.066;2023-01-05T18:50:40;6.10;87.10
35244;DHT22;37916;52.160;21.066;2023-01-05T19:01:05;6.10;87.40
35244;DHT22;37916;52.160;21.066;2023-01-05T19:11:26;6.10;87.70
35244;DHT22;37916;52.160;21.066;2023-01-05T19:21:29;6.10;88.40
35244;DHT22;37916;52.160;21.066;2023-01-05T19:31:30;5.90;87.70
35244;DHT22;37916;52.160;21.066;2023-01-05T19:41:33;5.80;87.00
35244;DHT22;37916;52.160;21.066;2023-01-05T19:51:48;5.70;86.60
35244;DHT22;37916;52.160;21.066;2023-01-05T20:01:54;5.70;83.50
35244;DHT22;37916;52.160;21.066;2023-01-05T20:12:01;5.50;82.20
35244;DHT22;37916;52.160;21.066;2023-01-05T20:33:04;5.40;83.00
35244;DHT22;37916;52.160;21.066;2023-01-05T20:43:10;5.30;81.30
35244;DHT22;37916;52.160;21.066;2023-01-05T20:53:13;5.30;83.10
35244;DHT22;37916;52.160;21.066;2023-01-05T21:03:16;5.10;83.40
35244;DHT22;37916;52.160;21.066;2023-01-05T21:13:18;4.90;85.10
35244;DHT22;37916;52.160;21.066;2023-01-05T21:23:19;4.80;84.20
35244;DHT22;37916;52.160;21.066;2023-01-05T21:33:25;4.70;85.10
35244;DHT22;37916;52.160;21.066;2023-01-05T21:43:26;4.40;83.10
35244;DHT22;37916;52.160;21.066;2023-01-05T21:53:40;4.50;83.90
35244;DHT22;37916;52.160;21.066;2023-01-05T22:03:59;4.30;85.10
35244;DHT22;37916;52.160;21.066;2023-01-05T22:14:03;4.00;84.60
35244;DHT22;37916;52.160;21.066;2023-01-05T22:24:04;3.90;82.50
35244;DHT22;37916;52.160;21.066;2023-01-05T22:34:08;3.50;80.60
35244;DHT22;37916;52.160;21.066;2023-01-05T22:44:11;3.60;82.60
35244;DHT22;37916;52.160;21.066;2023-01-05T22:54:15;3.10;82.70
35244;DHT22;37916;52.160;21.066;2023-01-05T23:04:16;3.00;82.90
35244;DHT22;37916;52.160;21.066;2023-01-05T23:14:17;2.70;84.40
35244;DHT22;37916;52.160;21.066;2023-01-05T23:24:19;2.70;83.10
35244;DHT22;37916;52.160;21.066;2023-01-05T23:34:20;2.50;82.30
35244;DHT22;37916;52.160;21.066;2023-01-05T23:44:21;2.60;83.60
35244;DHT22;37916;52.160;21.066;2023-01-05T23:54:22;2.70;82.50
